aviador You're here:

GCXO Decoded Metar

TENERIFE in SPAIN
Report Time2017-08-19 20:00:00
UTC Time2017-08-19 20:18:01
Flight Rules ifr IFR
Wind260° at 12 kt
W.Decomp.*RWY 30: 9.8 kt HW 6.9 kt LCW
W.Rank260° ranks 16
Current wind is above 260° avg. (5.9)
Visibility2500 m
Phenomena:Vicinity Fog
Clouds:Few 000 Hf
Expected CloudBase > 400 ft AGL from Temp-Dew spread
CeilingNone
Temp19°C (ISA +8)
Dew Point18°C (94% RH)
AAT17.5°C
QNH1019 hPa
Density Alt3,104 ft
Elevation2,073 ft
Report Wrong Elevation
Raw Report
GCXO 192000Z 26012KT 240V300 9999 2500NW VCFG FEW000 19/18 Q1019
NOSIG=

Extra information for GCXO:More info

Metar Taf Metar & Taf Last 4 Metars F.Rules Stats Wind Profile Meteogram Temp Stats Airport Information Weather charts Add Link Nearby VenuesMetar ALERT Operation Metar Decoded Social comments